sensor_id;sensor_type;location;lat;lon;timestamp;temperature;humidity
33831;DHT22;20137;48.834;8.732;2022-11-04T00:01:45;9.80;99.90
33831;DHT22;20137;48.834;8.732;2022-11-04T00:04:12;9.80;99.90
33831;DHT22;20137;48.834;8.732;2022-11-04T00:06:38;9.70;99.90
33831;DHT22;20137;48.834;8.732;2022-11-04T00:09:06;9.60;99.90
33831;DHT22;20137;48.834;8.732;2022-11-04T00:11:32;9.80;99.90
33831;DHT22;20137;48.834;8.732;2022-11-04T00:14:16;9.80;99.90
33831;DHT22;20137;48.834;8.732;2022-11-04T00:16:42;9.90;99.90
33831;DHT22;20137;48.834;8.732;2022-11-04T00:19:27;9.90;99.90
33831;DHT22;20137;48.834;8.732;2022-11-04T00:21:53;9.70;99.90
33831;DHT22;20137;48.834;8.732;2022-11-04T00:24:38;9.70;99.90
33831;DHT22;20137;48.834;8.732;2022-11-04T00:27:14;9.70;99.90
33831;DHT22;20137;48.834;8.732;2022-11-04T00:29:59;9.70;99.90
33831;DHT22;20137;48.834;8.732;2022-11-04T00:32:25;9.70;99.90
33831;DHT22;20137;48.834;8.732;2022-11-04T00:35:10;9.60;99.90
33831;DHT22;20137;48.834;8.732;2022-11-04T00:37:40;9.50;99.90
33831;DHT22;20137;48.834;8.732;2022-11-04T00:40:08;9.50;99.90
33831;DHT22;20137;48.834;8.732;2022-11-04T00:42:34;9.30;99.90
33831;DHT22;20137;48.834;8.732;2022-11-04T00:45:00;9.30;99.90
33831;DHT22;20137;48.834;8.732;2022-11-04T00:47:25;9.30;99.90
33831;DHT22;20137;48.834;8.732;2022-11-04T00:49:51;9.20;99.90
33831;DHT22;20137;48.834;8.732;2022-11-04T00:52:17;9.20;99.90
33831;DHT22;20137;48.834;8.732;2022-11-04T00:54:42;9.10;99.90
33831;DHT22;20137;48.834;8.732;2022-11-04T00:57:12;9.10;99.90
33831;DHT22;20137;48.834;8.732;2022-11-04T00:59:38;9.00;99.90
33831;DHT22;20137;48.834;8.732;2022-11-04T01:02:05;9.00;99.90
33831;DHT22;20137;48.834;8.732;2022-11-04T01:04:30;9.00;99.90
33831;DHT22;20137;48.834;8.732;2022-11-04T01:06:56;9.00;99.90
33831;DHT22;20137;48.834;8.732;2022-11-04T01:09:22;9.00;99.90
33831;DHT22;20137;48.834;8.732;2022-11-04T01:11:48;9.10;99.90
33831;DHT22;20137;48.834;8.732;2022-11-04T01:14:14;9.00;99.90
33831;DHT22;20137;48.834;8.732;2022-11-04T01:16:40;8.90;99.90
33831;DHT22;20137;48.834;8.732;2022-11-04T01:19:06;8.90;99.90
33831;DHT22;20137;48.834;8.732;2022-11-04T01:21:32;8.90;99.90
33831;DHT22;20137;48.834;8.732;2022-11-04T01:23:58;8.90;99.90
33831;DHT22;20137;48.834;8.732;2022-11-04T01:26:25;8.90;99.90
33831;DHT22;20137;48.834;8.732;2022-11-04T01:28:53;8.80;99.90
33831;DHT22;20137;48.834;8.732;2022-11-04T01:31:21;8.90;99.90
33831;DHT22;20137;48.834;8.732;2022-11-04T01:33:48;8.80;99.90
33831;DHT22;20137;48.834;8.732;2022-11-04T01:36:14;8.80;99.90
33831;DHT22;20137;48.834;8.732;2022-11-04T01:38:40;8.80;99.90
33831;DHT22;20137;48.834;8.732;2022-11-04T01:41:09;8.80;99.90
33831;DHT22;20137;48.834;8.732;2022-11-04T01:43:43;8.80;99.90
33831;DHT22;20137;48.834;8.732;2022-11-04T01:46:12;8.80;99.90
33831;DHT22;20137;48.834;8.732;2022-11-04T01:48:41;8.80;99.90
33831;DHT22;20137;48.834;8.732;2022-11-04T01:51:07;8.70;99.90
33831;DHT22;20137;48.834;8.732;2022-11-04T01:53:38;8.70;99.90
33831;DHT22;20137;48.834;8.732;2022-11-04T01:56:06;8.70;99.90
33831;DHT22;20137;48.834;8.732;2022-11-04T01:58:40;8.70;99.90
33831;DHT22;20137;48.834;8.732;2022-11-04T02:01:07;8.70;99.90
33831;DHT22;20137;48.834;8.732;2022-11-04T02:03:46;8.60;99.90
33831;DHT22;20137;48.834;8.732;2022-11-04T02:06:13;8.60;99.90
33831;DHT22;20137;48.834;8.732;2022-11-04T02:08:40;8.50;99.90
33831;DHT22;20137;48.834;8.732;2022-11-04T02:11:06;8.50;99.90
33831;DHT22;20137;48.834;8.732;2022-11-04T02:13:34;8.50;99.90
33831;DHT22;20137;48.834;8.732;2022-11-04T02:16:21;8.50;99.90
33831;DHT22;20137;48.834;8.732;2022-11-04T02:30:23;8.40;99.90
33831;DHT22;20137;48.834;8.732;2022-11-04T02:38:07;8.30;99.90
33831;DHT22;20137;48.834;8.732;2022-11-04T02:43:32;8.30;99.90
33831;DHT22;20137;48.834;8.732;2022-11-04T02:46:03;8.30;99.90
33831;DHT22;20137;48.834;8.732;2022-11-04T02:48:37;8.20;99.90
33831;DHT22;20137;48.834;8.732;2022-11-04T02:54:13;8.20;99.90
33831;DHT22;20137;48.834;8.732;2022-11-04T02:56:43;8.20;99.90
33831;DHT22;20137;48.834;8.732;2022-11-04T02:59:37;8.20;99.90
33831;DHT22;20137;48.834;8.732;2022-11-04T03:02:07;8.10;99.90
33831;DHT22;20137;48.834;8.732;2022-11-04T03:04:41;8.10;99.90
33831;DHT22;20137;48.834;8.732;2022-11-04T03:07:11;8.10;99.90
33831;DHT22;20137;48.834;8.732;2022-11-04T03:09:40;8.00;99.90
33831;DHT22;20137;48.834;8.732;2022-11-04T03:12:12;8.00;99.90
33831;DHT22;20137;48.834;8.732;2022-11-04T03:14:48;8.10;99.90
33831;DHT22;20137;48.834;8.732;2022-11-04T03:17:25;8.10;99.90
33831;DHT22;20137;48.834;8.732;2022-11-04T03:19:56;8.00;99.90
33831;DHT22;20137;48.834;8.732;2022-11-04T03:22:25;8.00;99.90
33831;DHT22;20137;48.834;8.732;2022-11-04T03:24:54;8.00;99.90
33831;DHT22;20137;48.834;8.732;2022-11-04T03:27:40;8.10;99.90
33831;DHT22;20137;48.834;8.732;2022-11-04T03:30:11;8.00;99.90
33831;DHT22;20137;48.834;8.732;2022-11-04T03:32:56;8.00;99.90
33831;DHT22;20137;48.834;8.732;2022-11-04T03:35:26;7.90;99.90
33831;DHT22;20137;48.834;8.732;2022-11-04T03:37:52;7.90;99.90
33831;DHT22;20137;48.834;8.732;2022-11-04T03:40:19;7.90;99.90
33831;DHT22;20137;48.834;8.732;2022-11-04T03:43:15;7.90;99.90
33831;DHT22;20137;48.834;8.732;2022-11-04T03:45:42;7.90;99.90
33831;DHT22;20137;48.834;8.732;2022-11-04T03:48:09;7.90;99.90
33831;DHT22;20137;48.834;8.732;2022-11-04T03:50:43;7.80;99.90
33831;DHT22;20137;48.834;8.732;2022-11-04T03:53:10;7.90;99.90
33831;DHT22;20137;48.834;8.732;2022-11-04T03:58:52;8.10;99.90
33831;DHT22;20137;48.834;8.732;2022-11-04T04:01:47;8.10;99.90
33831;DHT22;20137;48.834;8.732;2022-11-04T04:06:52;8.00;99.90
33831;DHT22;20137;48.834;8.732;2022-11-04T04:09:38;8.00;99.90
33831;DHT22;20137;48.834;8.732;2022-11-04T04:12:06;7.90;99.90
33831;DHT22;20137;48.834;8.732;2022-11-04T04:14:40;7.90;99.90
33831;DHT22;20137;48.834;8.732;2022-11-04T04:17:20;7.80;99.90
33831;DHT22;20137;48.834;8.732;2022-11-04T04:19:51;7.80;99.90
33831;DHT22;20137;48.834;8.732;2022-11-04T04:22:24;7.90;99.90
33831;DHT22;20137;48.834;8.732;2022-11-04T04:24:55;7.70;99.90
33831;DHT22;20137;48.834;8.732;2022-11-04T04:27:40;7.70;99.90
33831;DHT22;20137;48.834;8.732;2022-11-04T04:30:12;7.60;99.90
33831;DHT22;20137;48.834;8.732;2022-11-04T04:32:48;7.60;99.90
33831;DHT22;20137;48.834;8.732;2022-11-04T04:35:15;7.50;99.90
33831;DHT22;20137;48.834;8.732;2022-11-04T04:38:02;7.60;99.90
33831;DHT22;20137;48.834;8.732;2022-11-04T04:40:57;7.40;99.90
33831;DHT22;20137;48.834;8.732;2022-11-04T04:43:43;7.50;99.90
33831;DHT22;20137;48.834;8.732;2022-11-04T04:46:31;7.40;99.90
33831;DHT22;20137;48.834;8.732;2022-11-04T04:49:07;7.40;99.90
33831;DHT22;20137;48.834;8.732;2022-11-04T04:51:38;7.30;99.90
33831;DHT22;20137;48.834;8.732;2022-11-04T04:54:05;7.30;99.90
33831;DHT22;20137;48.834;8.732;2022-11-04T04:56:31;7.20;99.90
33831;DHT22;20137;48.834;8.732;2022-11-04T04:58:56;7.20;99.90
33831;DHT22;20137;48.834;8.732;2022-11-04T05:01:22;7.20;99.90
33831;DHT22;20137;48.834;8.732;2022-11-04T05:03:48;7.20;99.90
33831;DHT22;20137;48.834;8.732;2022-11-04T05:06:13;7.10;99.90
33831;DHT22;20137;48.834;8.732;2022-11-04T05:08:39;7.10;99.90
33831;DHT22;20137;48.834;8.732;2022-11-04T05:11:04;7.10;99.90
33831;DHT22;20137;48.834;8.732;2022-11-04T05:13:30;7.00;99.90
33831;DHT22;20137;48.834;8.732;2022-11-04T05:15:57;7.00;99.90
33831;DHT22;20137;48.834;8.732;2022-11-04T05:18:27;7.00;99.90
33831;DHT22;20137;48.834;8.732;2022-11-04T05:20:52;7.00;99.90
33831;DHT22;20137;48.834;8.732;2022-11-04T05:23:18;7.00;99.90
33831;DHT22;20137;48.834;8.732;2022-11-04T05:25:43;7.00;99.90
33831;DHT22;20137;48.834;8.732;2022-11-04T05:28:09;7.00;99.90
33831;DHT22;20137;48.834;8.732;2022-11-04T05:30:35;7.00;99.90
33831;DHT22;20137;48.834;8.732;2022-11-04T05:33:01;7.00;99.90
33831;DHT22;20137;48.834;8.732;2022-11-04T05:35:26;7.00;99.90
33831;DHT22;20137;48.834;8.732;2022-11-04T05:37:54;6.90;99.90
33831;DHT22;20137;48.834;8.732;2022-11-04T05:40:21;6.90;99.90
33831;DHT22;20137;48.834;8.732;2022-11-04T05:42:46;6.80;99.90
33831;DHT22;20137;48.834;8.732;2022-11-04T05:45:12;6.80;99.90
33831;DHT22;20137;48.834;8.732;2022-11-04T05:47:37;6.80;99.90
33831;DHT22;20137;48.834;8.732;2022-11-04T05:50:03;6.90;99.90
33831;DHT22;20137;48.834;8.732;2022-11-04T05:52:29;6.80;99.90
33831;DHT22;20137;48.834;8.732;2022-11-04T05:54:55;6.70;99.90
33831;DHT22;20137;48.834;8.732;2022-11-04T05:57:20;7.30;99.90
33831;DHT22;20137;48.834;8.732;2022-11-04T05:59:46;6.80;99.90
33831;DHT22;20137;48.834;8.732;2022-11-04T06:02:11;6.80;99.90
33831;DHT22;20137;48.834;8.732;2022-11-04T06:04:37;6.70;99.90
33831;DHT22;20137;48.834;8.732;2022-11-04T06:07:03;6.70;99.90
33831;DHT22;20137;48.834;8.732;2022-11-04T06:09:28;6.80;99.90
33831;DHT22;20137;48.834;8.732;2022-11-04T06:12:14;6.60;99.90
33831;DHT22;20137;48.834;8.732;2022-11-04T06:14:43;6.60;99.90
33831;DHT22;20137;48.834;8.732;2022-11-04T06:17:19;6.60;99.90
33831;DHT22;20137;48.834;8.732;2022-11-04T06:19:46;6.60;99.90
33831;DHT22;20137;48.834;8.732;2022-11-04T06:22:16;6.60;99.90
33831;DHT22;20137;48.834;8.732;2022-11-04T06:24:42;6.50;99.90
33831;DHT22;20137;48.834;8.732;2022-11-04T06:27:09;6.50;99.90
33831;DHT22;20137;48.834;8.732;2022-11-04T06:29:35;6.50;99.90
33831;DHT22;20137;48.834;8.732;2022-11-04T06:32:05;6.50;99.90
33831;DHT22;20137;48.834;8.732;2022-11-04T06:34:30;6.50;99.90
33831;DHT22;20137;48.834;8.732;2022-11-04T06:36:56;6.50;99.90
33831;DHT22;20137;48.834;8.732;2022-11-04T06:39:22;6.50;99.90
33831;DHT22;20137;48.834;8.732;2022-11-04T06:41:47;6.50;99.90
33831;DHT22;20137;48.834;8.732;2022-11-04T06:44:13;6.50;99.90
33831;DHT22;20137;48.834;8.732;2022-11-04T06:46:40;6.50;99.90
33831;DHT22;20137;48.834;8.732;2022-11-04T06:49:10;6.60;99.90
33831;DHT22;20137;48.834;8.732;2022-11-04T06:51:37;6.50;99.90
33831;DHT22;20137;48.834;8.732;2022-11-04T06:54:03;6.60;99.90
33831;DHT22;20137;48.834;8.732;2022-11-04T06:56:29;6.60;99.90
33831;DHT22;20137;48.834;8.732;2022-11-04T06:58:55;6.60;99.90
33831;DHT22;20137;48.834;8.732;2022-11-04T07:01:22;6.90;99.90
33831;DHT22;20137;48.834;8.732;2022-11-04T07:03:50;6.70;99.90
33831;DHT22;20137;48.834;8.732;2022-11-04T07:06:16;6.70;99.90
33831;DHT22;20137;48.834;8.732;2022-11-04T07:08:42;6.80;99.90
33831;DHT22;20137;48.834;8.732;2022-11-04T07:11:07;6.80;99.90
33831;DHT22;20137;48.834;8.732;2022-11-04T07:13:33;6.80;99.90
33831;DHT22;20137;48.834;8.732;2022-11-04T07:15:59;6.80;99.90
33831;DHT22;20137;48.834;8.732;2022-11-04T07:18:25;6.90;99.90
33831;DHT22;20137;48.834;8.732;2022-11-04T07:20:50;7.00;99.90
33831;DHT22;20137;48.834;8.732;2022-11-04T07:23:16;7.00;99.90
33831;DHT22;20137;48.834;8.732;2022-11-04T07:25:42;7.00;99.90
33831;DHT22;20137;48.834;8.732;2022-11-04T07:28:08;7.10;99.90
33831;DHT22;20137;48.834;8.732;2022-11-04T07:30:33;7.00;99.90
33831;DHT22;20137;48.834;8.732;2022-11-04T07:32:59;7.10;99.90
33831;DHT22;20137;48.834;8.732;2022-11-04T07:35:24;7.20;99.90
33831;DHT22;20137;48.834;8.732;2022-11-04T07:37:50;7.30;99.90
33831;DHT22;20137;48.834;8.732;2022-11-04T07:40:16;7.30;99.90
33831;DHT22;20137;48.834;8.732;2022-11-04T07:42:41;7.50;99.90
33831;DHT22;20137;48.834;8.732;2022-11-04T07:45:07;7.50;99.90
33831;DHT22;20137;48.834;8.732;2022-11-04T07:47:33;7.60;99.90
33831;DHT22;20137;48.834;8.732;2022-11-04T07:49:59;7.60;99.90
33831;DHT22;20137;48.834;8.732;2022-11-04T07:52:24;7.70;99.90
33831;DHT22;20137;48.834;8.732;2022-11-04T07:54:50;7.70;99.90
33831;DHT22;20137;48.834;8.732;2022-11-04T07:57:16;7.80;99.90
33831;DHT22;20137;48.834;8.732;2022-11-04T07:59:42;7.80;99.90
33831;DHT22;20137;48.834;8.732;2022-11-04T08:02:09;7.80;99.90
33831;DHT22;20137;48.834;8.732;2022-11-04T08:04:35;7.90;99.90
33831;DHT22;20137;48.834;8.732;2022-11-04T08:07:01;8.00;99.90
33831;DHT22;20137;48.834;8.732;2022-11-04T08:09:26;8.10;99.90
33831;DHT22;20137;48.834;8.732;2022-11-04T08:11:52;8.20;99.90
33831;DHT22;20137;48.834;8.732;2022-11-04T08:14:18;8.40;99.90
33831;DHT22;20137;48.834;8.732;2022-11-04T08:16:43;8.40;99.90
33831;DHT22;20137;48.834;8.732;2022-11-04T08:19:09;8.40;99.90
33831;DHT22;20137;48.834;8.732;2022-11-04T08:21:35;8.50;99.90
33831;DHT22;20137;48.834;8.732;2022-11-04T08:24:01;8.50;99.90
33831;DHT22;20137;48.834;8.732;2022-11-04T08:26:28;8.60;99.90
33831;DHT22;20137;48.834;8.732;2022-11-04T08:28:53;8.70;99.90
33831;DHT22;20137;48.834;8.732;2022-11-04T08:31:21;8.80;99.90
33831;DHT22;20137;48.834;8.732;2022-11-04T08:33:51;8.90;99.90
33831;DHT22;20137;48.834;8.732;2022-11-04T08:36:21;9.00;99.90
33831;DHT22;20137;48.834;8.732;2022-11-04T08:38:47;9.10;99.90
33831;DHT22;20137;48.834;8.732;2022-11-04T08:41:14;9.20;99.90
33831;DHT22;20137;48.834;8.732;2022-11-04T08:43:41;9.40;99.90
33831;DHT22;20137;48.834;8.732;2022-11-04T08:46:08;9.40;99.90
33831;DHT22;20137;48.834;8.732;2022-11-04T08:48:35;9.40;99.90
33831;DHT22;20137;48.834;8.732;2022-11-04T08:51:02;9.50;99.90
33831;DHT22;20137;48.834;8.732;2022-11-04T08:53:29;9.60;99.90
33831;DHT22;20137;48.834;8.732;2022-11-04T08:55:55;9.50;99.90
33831;DHT22;20137;48.834;8.732;2022-11-04T08:58:22;9.50;99.90
33831;DHT22;20137;48.834;8.732;2022-11-04T09:00:48;9.50;99.90
33831;DHT22;20137;48.834;8.732;2022-11-04T09:03:14;9.50;99.90
33831;DHT22;20137;48.834;8.732;2022-11-04T09:05:41;9.50;99.90
33831;DHT22;20137;48.834;8.732;2022-11-04T09:08:12;9.50;99.90
33831;DHT22;20137;48.834;8.732;2022-11-04T09:10:46;9.50;99.90
33831;DHT22;20137;48.834;8.732;2022-11-04T09:13:13;9.50;99.90
33831;DHT22;20137;48.834;8.732;2022-11-04T09:15:40;9.60;99.90
33831;DHT22;20137;48.834;8.732;2022-11-04T09:18:06;9.70;99.90
33831;DHT22;20137;48.834;8.732;2022-11-04T09:20:32;9.80;99.90
33831;DHT22;20137;48.834;8.732;2022-11-04T09:22:58;9.90;99.90
33831;DHT22;20137;48.834;8.732;2022-11-04T09:25:25;10.00;99.90
33831;DHT22;20137;48.834;8.732;2022-11-04T09:27:50;10.00;99.90
33831;DHT22;20137;48.834;8.732;2022-11-04T09:30:16;10.10;99.90
33831;DHT22;20137;48.834;8.732;2022-11-04T09:32:42;10.10;99.90
33831;DHT22;20137;48.834;8.732;2022-11-04T09:35:08;10.10;99.90
33831;DHT22;20137;48.834;8.732;2022-11-04T09:37:33;10.10;99.90
33831;DHT22;20137;48.834;8.732;2022-11-04T09:39:59;10.10;99.90
33831;DHT22;20137;48.834;8.732;2022-11-04T09:45:13;10.00;99.90
33831;DHT22;20137;48.834;8.732;2022-11-04T09:47:45;10.10;99.90
33831;DHT22;20137;48.834;8.732;2022-11-04T09:50:20;10.10;99.90
33831;DHT22;20137;48.834;8.732;2022-11-04T09:52:54;10.30;99.90
33831;DHT22;20137;48.834;8.732;2022-11-04T09:55:37;10.40;99.90
33831;DHT22;20137;48.834;8.732;2022-11-04T09:58:04;10.50;99.90
33831;DHT22;20137;48.834;8.732;2022-11-04T10:00:35;10.50;99.90
33831;DHT22;20137;48.834;8.732;2022-11-04T10:03:23;10.60;99.90
33831;DHT22;20137;48.834;8.732;2022-11-04T10:06:01;10.70;99.90
33831;DHT22;20137;48.834;8.732;2022-11-04T10:08:56;10.70;99.90
33831;DHT22;20137;48.834;8.732;2022-11-04T10:14:51;11.00;99.90
33831;DHT22;20137;48.834;8.732;2022-11-04T10:19:58;11.40;99.90
33831;DHT22;20137;48.834;8.732;2022-11-04T10:22:32;11.60;99.90
33831;DHT22;20137;48.834;8.732;2022-11-04T10:25:13;11.70;99.90
33831;DHT22;20137;48.834;8.732;2022-11-04T10:27:42;11.90;99.90
33831;DHT22;20137;48.834;8.732;2022-11-04T10:30:29;12.20;99.90
33831;DHT22;20137;48.834;8.732;2022-11-04T10:35:47;12.20;99.90
33831;DHT22;20137;48.834;8.732;2022-11-04T10:38:21;12.20;99.90
33831;DHT22;20137;48.834;8.732;2022-11-04T10:40:49;12.20;99.90
33831;DHT22;20137;48.834;8.732;2022-11-04T10:43:42;12.30;99.90
33831;DHT22;20137;48.834;8.732;2022-11-04T10:51:40;12.30;99.90
33831;DHT22;20137;48.834;8.732;2022-11-04T10:54:08;12.10;99.90
33831;DHT22;20137;48.834;8.732;2022-11-04T10:56:37;12.10;99.90
33831;DHT22;20137;48.834;8.732;2022-11-04T10:59:26;12.00;99.90
33831;DHT22;20137;48.834;8.732;2022-11-04T11:01:57;12.00;99.90
33831;DHT22;20137;48.834;8.732;2022-11-04T11:04:32;12.00;99.90
33831;DHT22;20137;48.834;8.732;2022-11-04T11:07:02;12.00;99.90
33831;DHT22;20137;48.834;8.732;2022-11-04T11:09:49;12.00;99.90
33831;DHT22;20137;48.834;8.732;2022-11-04T11:12:24;11.90;99.90
33831;DHT22;20137;48.834;8.732;2022-11-04T11:17:52;11.70;99.90
33831;DHT22;20137;48.834;8.732;2022-11-04T11:20:23;11.80;99.90
33831;DHT22;20137;48.834;8.732;2022-11-04T11:22:50;11.80;99.90
33831;DHT22;20137;48.834;8.732;2022-11-04T11:25:32;11.80;99.90
33831;DHT22;20137;48.834;8.732;2022-11-04T11:28:08;11.80;99.90
33831;DHT22;20137;48.834;8.732;2022-11-04T11:33:46;11.70;99.90
33831;DHT22;20137;48.834;8.732;2022-11-04T11:41:52;11.20;99.90
33831;DHT22;20137;48.834;8.732;2022-11-04T11:44:24;11.00;99.90
33831;DHT22;20137;48.834;8.732;2022-11-04T11:46:54;10.80;99.90
33831;DHT22;20137;48.834;8.732;2022-11-04T11:49:29;10.60;99.90
33831;DHT22;20137;48.834;8.732;2022-11-04T11:52:15;10.50;99.90
33831;DHT22;20137;48.834;8.732;2022-11-04T11:54:42;10.60;99.90
33831;DHT22;20137;48.834;8.732;2022-11-04T12:00:00;10.70;99.90
33831;DHT22;20137;48.834;8.732;2022-11-04T12:05:00;10.80;99.90
33831;DHT22;20137;48.834;8.732;2022-11-04T12:07:54;10.80;99.90
33831;DHT22;20137;48.834;8.732;2022-11-04T12:13:14;10.90;99.90
33831;DHT22;20137;48.834;8.732;2022-11-04T12:23:54;11.40;99.90
33831;DHT22;20137;48.834;8.732;2022-11-04T12:29:29;11.60;99.90
33831;DHT22;20137;48.834;8.732;2022-11-04T12:32:28;11.60;99.90
33831;DHT22;20137;48.834;8.732;2022-11-04T12:40:44;11.70;99.90
33831;DHT22;20137;48.834;8.732;2022-11-04T12:43:35;11.80;99.90
33831;DHT22;20137;48.834;8.732;2022-11-04T12:49:23;11.60;99.90
33831;DHT22;20137;48.834;8.732;2022-11-04T12:54:50;11.40;99.90
33831;DHT22;20137;48.834;8.732;2022-11-04T12:57:41;11.40;99.90
33831;DHT22;20137;48.834;8.732;2022-11-04T13:00:13;11.30;99.90
33831;DHT22;20137;48.834;8.732;2022-11-04T13:05:32;11.40;99.90
33831;DHT22;20137;48.834;8.732;2022-11-04T13:08:43;11.50;99.90
33831;DHT22;20137;48.834;8.732;2022-11-04T13:11:16;11.50;99.90
33831;DHT22;20137;48.834;8.732;2022-11-04T13:14:32;11.30;99.90
33831;DHT22;20137;48.834;8.732;2022-11-04T13:16:42;11.10;99.90
33831;DHT22;20137;48.834;8.732;2022-11-04T13:21:48;10.80;99.90
33831;DHT22;20137;48.834;8.732;2022-11-04T13:24:21;10.60;99.90
33831;DHT22;20137;48.834;8.732;2022-11-04T13:26:49;10.50;99.90
33831;DHT22;20137;48.834;8.732;2022-11-04T13:29:18;10.40;99.90
33831;DHT22;20137;48.834;8.732;2022-11-04T13:31:55;10.30;99.90
33831;DHT22;20137;48.834;8.732;2022-11-04T13:37:30;10.20;99.90
33831;DHT22;20137;48.834;8.732;2022-11-04T13:40:05;10.20;99.90
33831;DHT22;20137;48.834;8.732;2022-11-04T13:46:00;10.10;99.90
33831;DHT22;20137;48.834;8.732;2022-11-04T13:48:28;9.90;99.90
33831;DHT22;20137;48.834;8.732;2022-11-04T13:50:58;9.90;99.90
33831;DHT22;20137;48.834;8.732;2022-11-04T13:53:47;9.80;99.90
33831;DHT22;20137;48.834;8.732;2022-11-04T13:56:33;9.60;99.90
33831;DHT22;20137;48.834;8.732;2022-11-04T13:59:25;9.60;99.90
33831;DHT22;20137;48.834;8.732;2022-11-04T14:04:42;9.30;99.90
33831;DHT22;20137;48.834;8.732;2022-11-04T14:07:10;9.30;99.90
33831;DHT22;20137;48.834;8.732;2022-11-04T14:14:53;9.60;99.90
33831;DHT22;20137;48.834;8.732;2022-11-04T14:20:25;9.90;99.90
33831;DHT22;20137;48.834;8.732;2022-11-04T14:23:04;10.20;99.90
33831;DHT22;20137;48.834;8.732;2022-11-04T14:25:36;10.40;99.90
33831;DHT22;20137;48.834;8.732;2022-11-04T14:30:45;10.70;99.90
33831;DHT22;20137;48.834;8.732;2022-11-04T14:36:16;10.80;99.90
33831;DHT22;20137;48.834;8.732;2022-11-04T14:39:03;10.70;99.90
33831;DHT22;20137;48.834;8.732;2022-11-04T14:46:42;10.70;99.90
33831;DHT22;20137;48.834;8.732;2022-11-04T14:51:50;10.50;99.90
33831;DHT22;20137;48.834;8.732;2022-11-04T14:54:21;10.40;99.90
33831;DHT22;20137;48.834;8.732;2022-11-04T14:56:49;10.30;99.90
33831;DHT22;20137;48.834;8.732;2022-11-04T14:59:23;10.20;99.90
33831;DHT22;20137;48.834;8.732;2022-11-04T15:01:52;10.20;99.90
33831;DHT22;20137;48.834;8.732;2022-11-04T15:04:23;10.10;99.90
33831;DHT22;20137;48.834;8.732;2022-11-04T15:06:55;9.90;99.90
33831;DHT22;20137;48.834;8.732;2022-11-04T15:09:33;9.90;99.90
33831;DHT22;20137;48.834;8.732;2022-11-04T15:14:53;9.70;99.90
33831;DHT22;20137;48.834;8.732;2022-11-04T15:17:20;9.60;99.90
33831;DHT22;20137;48.834;8.732;2022-11-04T15:19:52;9.50;99.90
33831;DHT22;20137;48.834;8.732;2022-11-04T15:22:19;9.40;99.90
33831;DHT22;20137;48.834;8.732;2022-11-04T15:24:45;9.40;99.90
33831;DHT22;20137;48.834;8.732;2022-11-04T15:27:16;9.30;99.90
33831;DHT22;20137;48.834;8.732;2022-11-04T15:30:25;9.30;99.90
33831;DHT22;20137;48.834;8.732;2022-11-04T15:32:53;9.20;99.90
33831;DHT22;20137;48.834;8.732;2022-11-04T15:35:19;9.20;99.90
33831;DHT22;20137;48.834;8.732;2022-11-04T15:37:45;9.20;99.90
33831;DHT22;20137;48.834;8.732;2022-11-04T15:40:13;9.10;99.90
33831;DHT22;20137;48.834;8.732;2022-11-04T15:42:42;9.20;99.90
33831;DHT22;20137;48.834;8.732;2022-11-04T15:47:47;8.80;99.90
33831;DHT22;20137;48.834;8.732;2022-11-04T15:50:24;8.90;99.90
33831;DHT22;20137;48.834;8.732;2022-11-04T15:52:54;8.80;99.90
33831;DHT22;20137;48.834;8.732;2022-11-04T15:55:25;8.70;99.90
33831;DHT22;20137;48.834;8.732;2022-11-04T15:57:52;8.70;99.90
33831;DHT22;20137;48.834;8.732;2022-11-04T16:00:22;8.70;99.90
33831;DHT22;20137;48.834;8.732;2022-11-04T16:02:53;8.60;99.90
33831;DHT22;20137;48.834;8.732;2022-11-04T16:05:29;8.60;99.90
33831;DHT22;20137;48.834;8.732;2022-11-04T16:08:13;8.60;99.90
33831;DHT22;20137;48.834;8.732;2022-11-04T16:10:42;8.60;99.90
33831;DHT22;20137;48.834;8.732;2022-11-04T16:15:49;8.60;99.90
33831;DHT22;20137;48.834;8.732;2022-11-04T16:18:33;8.60;99.90
33831;DHT22;20137;48.834;8.732;2022-11-04T16:21:04;8.60;99.90
33831;DHT22;20137;48.834;8.732;2022-11-04T16:23:30;8.60;99.90
33831;DHT22;20137;48.834;8.732;2022-11-04T16:25:59;8.60;99.90
33831;DHT22;20137;48.834;8.732;2022-11-04T16:28:27;8.60;99.90
33831;DHT22;20137;48.834;8.732;2022-11-04T16:30:58;8.60;99.90
33831;DHT22;20137;48.834;8.732;2022-11-04T16:33:24;8.70;99.90
33831;DHT22;20137;48.834;8.732;2022-11-04T16:35:50;8.60;99.90
33831;DHT22;20137;48.834;8.732;2022-11-04T16:38:16;8.60;99.90
33831;DHT22;20137;48.834;8.732;2022-11-04T16:40:43;8.60;99.90
33831;DHT22;20137;48.834;8.732;2022-11-04T16:43:10;8.60;99.90
33831;DHT22;20137;48.834;8.732;2022-11-04T16:45:36;8.60;99.90
33831;DHT22;20137;48.834;8.732;2022-11-04T16:48:05;8.50;99.90
33831;DHT22;20137;48.834;8.732;2022-11-04T16:50:32;8.50;99.90
33831;DHT22;20137;48.834;8.732;2022-11-04T16:52:58;8.40;99.90
33831;DHT22;20137;48.834;8.732;2022-11-04T16:55:24;8.40;99.90
33831;DHT22;20137;48.834;8.732;2022-11-04T16:57:57;8.40;99.90
33831;DHT22;20137;48.834;8.732;2022-11-04T17:00:25;8.40;99.90
33831;DHT22;20137;48.834;8.732;2022-11-04T17:02:51;8.40;99.90
33831;DHT22;20137;48.834;8.732;2022-11-04T17:05:17;8.30;99.90
33831;DHT22;20137;48.834;8.732;2022-11-04T17:07:43;8.40;99.90
33831;DHT22;20137;48.834;8.732;2022-11-04T17:10:23;8.40;99.90
33831;DHT22;20137;48.834;8.732;2022-11-04T17:12:49;8.40;99.90
33831;DHT22;20137;48.834;8.732;2022-11-04T17:15:15;8.40;99.90
33831;DHT22;20137;48.834;8.732;2022-11-04T17:17:42;8.40;99.90
33831;DHT22;20137;48.834;8.732;2022-11-04T17:20:11;8.40;99.90
33831;DHT22;20137;48.834;8.732;2022-11-04T17:22:36;8.40;99.90
33831;DHT22;20137;48.834;8.732;2022-11-04T17:25:03;8.40;99.90
33831;DHT22;20137;48.834;8.732;2022-11-04T17:27:35;8.30;99.90
33831;DHT22;20137;48.834;8.732;2022-11-04T17:30:00;8.30;99.90
33831;DHT22;20137;48.834;8.732;2022-11-04T17:32:26;8.30;99.90
33831;DHT22;20137;48.834;8.732;2022-11-04T17:34:51;8.30;99.90
33831;DHT22;20137;48.834;8.732;2022-11-04T17:37:17;8.30;99.90
33831;DHT22;20137;48.834;8.732;2022-11-04T17:39:43;8.30;99.90
33831;DHT22;20137;48.834;8.732;2022-11-04T17:42:08;8.30;99.90
33831;DHT22;20137;48.834;8.732;2022-11-04T17:44:52;8.30;99.90
33831;DHT22;20137;48.834;8.732;2022-11-04T17:47:18;8.30;99.90
33831;DHT22;20137;48.834;8.732;2022-11-04T17:49:44;8.30;99.90
33831;DHT22;20137;48.834;8.732;2022-11-04T17:52:09;8.20;99.90
33831;DHT22;20137;48.834;8.732;2022-11-04T17:54:35;8.30;99.90
33831;DHT22;20137;48.834;8.732;2022-11-04T17:57:01;8.20;99.90
33831;DHT22;20137;48.834;8.732;2022-11-04T17:59:27;8.20;99.90
33831;DHT22;20137;48.834;8.732;2022-11-04T18:01:52;8.20;99.90
33831;DHT22;20137;48.834;8.732;2022-11-04T18:04:20;8.20;99.90
33831;DHT22;20137;48.834;8.732;2022-11-04T18:06:46;8.20;99.90
33831;DHT22;20137;48.834;8.732;2022-11-04T18:09:13;8.20;99.90
33831;DHT22;20137;48.834;8.732;2022-11-04T18:11:42;8.20;99.90
33831;DHT22;20137;48.834;8.732;2022-11-04T18:14:27;8.10;99.90
33831;DHT22;20137;48.834;8.732;2022-11-04T18:16:52;8.10;99.90